Time;durP1;ratioP1;P1;durP2;ratioP2;P2;SDS_P1;SDS_P2;PMS_P1;PMS_P2;Temp;Humidity;BMP_temperature;BMP_pressure;BME280_temperature;BME280_humidity;BME280_pressure;Samples;Min_cycle;Max_cycle;Signal;HPM_P1;HPM_P2
2022/09/08 00:00:13;;;;;;;18.33;11.73;;;;;;;24.38;47.67;98491.87;4488491;31;20120;-84
2022/09/08 00:02:38;;;;;;;17.42;12.20;;;;;;;24.37;47.54;98490.22;4502979;31;20466;-84
2022/09/08 00:05:05;;;;;;;17.25;11.93;;;;;;;24.30;47.66;98485.56;4502840;31;20148;-84
2022/09/08 00:07:32;;;;;;;21.73;11.90;;;;;;;24.28;47.72;98478.66;4502907;31;20080;-84
2022/09/08 00:09:58;;;;;;;18.37;11.45;;;;;;;24.33;47.37;98478.97;4502752;31;20492;-84
2022/09/08 00:12:24;;;;;;;18.92;11.75;;;;;;;24.33;47.25;98477.09;4502876;31;20148;-84
2022/09/08 00:14:51;;;;;;;18.58;11.68;;;;;;;24.23;47.25;98471.13;4488486;31;20099;-83
2022/09/08 00:17:17;;;;;;;15.43;9.90;;;;;;;24.28;47.00;98479.50;4475311;31;20114;-84
2022/09/08 00:19:43;;;;;;;15.80;10.23;;;;;;;24.34;46.69;98472.56;4502813;31;20127;-84
2022/09/08 00:22:08;;;;;;;16.95;9.80;;;;;;;24.32;46.41;98461.16;4502743;31;20099;-84
2022/09/08 00:24:34;;;;;;;15.05;9.70;;;;;;;24.32;46.11;98463.84;4502824;31;20088;-83
2022/09/08 00:26:59;;;;;;;15.68;10.82;;;;;;;24.28;46.01;98460.66;4501943;31;20110;-83
2022/09/08 00:29:25;;;;;;;14.75;9.80;;;;;;;24.30;45.95;98461.31;4502438;31;20140;-83
2022/09/08 00:31:50;;;;;;;16.45;10.63;;;;;;;24.29;46.13;98453.41;4502721;31;20164;-83
2022/09/08 00:34:15;;;;;;;16.45;10.98;;;;;;;24.27;46.51;98455.44;4502569;31;20135;-83
2022/09/08 00:36:41;;;;;;;19.35;11.10;;;;;;;24.25;46.93;98446.72;4488358;31;20084;-83
2022/09/08 00:39:06;;;;;;;18.35;11.50;;;;;;;24.23;47.14;98451.44;4502752;31;20104;-83
2022/09/08 00:41:31;;;;;;;17.92;12.02;;;;;;;24.20;47.40;98443.72;4488542;31;20093;-83
2022/09/08 00:44:01;;;;;;;17.67;12.37;;;;;;;24.18;47.56;98446.59;4488519;31;20098;-83
2022/09/08 00:46:40;;;;;;;17.23;12.63;;;;;;;24.17;47.71;98450.31;4488568;31;20111;-83
2022/09/08 00:49:10;;;;;;;18.62;12.88;;;;;;;24.20;47.90;98443.72;4502604;31;20123;-83
2022/09/08 00:51:39;;;;;;;18.08;13.07;;;;;;;24.16;48.16;98432.47;4502517;31;20561;-84
2022/09/08 00:54:04;;;;;;;19.17;13.20;;;;;;;24.13;48.42;98436.38;4488309;31;20447;-84
2022/09/08 00:56:30;;;;;;;18.35;12.48;;;;;;;24.13;48.43;98431.00;4488023;31;20123;-84
2022/09/08 00:58:56;;;;;;;20.58;13.18;;;;;;;24.10;48.59;98438.56;4487800;31;20402;-84
2022/09/08 01:01:21;;;;;;;18.00;13.20;;;;;;;24.10;48.69;98436.72;4488046;31;20112;-84
2022/09/08 01:03:47;;;;;;;18.80;13.35;;;;;;;24.07;48.87;98437.09;4502266;31;20110;-84
2022/09/08 01:12:43;;;;;;;18.45;13.50;;;;;;;24.04;49.00;98432.06;4502237;31;20088;-84
2022/09/08 01:14:57;;;;;;;21.27;14.20;;;;;;;24.04;49.40;98440.13;4490104;31;20114;-84
2022/09/08 01:17:28;;;;;;;20.67;13.95;;;;;;;24.00;49.58;98446.06;4487737;31;20092;-84
2022/09/08 01:19:54;;;;;;;21.65;14.93;;;;;;;23.99;49.71;98437.16;4502222;31;20106;-84
2022/09/08 01:22:32;;;;;;;18.83;14.02;;;;;;;23.91;49.93;98438.03;4487584;31;20118;-84
2022/09/08 01:25:19;;;;;;;18.70;14.48;;;;;;;23.95;49.96;98435.81;4502020;31;20091;-84
2022/09/08 01:27:47;;;;;;;21.60;14.90;;;;;;;23.93;50.00;98435.16;4502025;31;20123;-84
2022/09/08 01:30:12;;;;;;;19.55;14.32;;;;;;;23.83;50.30;98434.56;4487621;31;20108;-84
2022/09/08 01:32:40;;;;;;;20.67;15.02;;;;;;;23.83;50.35;98438.06;4487519;31;20197;-84
2022/09/08 01:35:07;;;;;;;20.02;14.52;;;;;;;23.83;50.32;98429.16;4487516;31;20106;-84
2022/09/08 01:37:32;;;;;;;19.42;14.55;;;;;;;23.85;50.25;98432.53;4501748;31;20092;-84
2022/09/08 01:39:57;;;;;;;19.60;14.27;;;;;;;23.85;50.23;98432.53;4503447;31;20088;-84
2022/09/08 01:42:24;;;;;;;20.23;15.25;;;;;;;23.84;50.26;98428.16;4503877;31;20092;-84
2022/09/08 01:44:49;;;;;;;19.55;14.57;;;;;;;23.81;50.40;98417.75;4503918;31;20087;-84
2022/09/08 01:47:15;;;;;;;19.67;15.05;;;;;;;23.80;50.38;98421.44;4489527;31;20122;-84
2022/09/08 01:49:40;;;;;;;19.35;13.88;;;;;;;23.76;50.45;98429.03;4503886;31;20088;-84
2022/09/08 01:52:06;;;;;;;19.85;14.18;;;;;;;23.76;50.37;98426.34;4489402;31;20135;-84
2022/09/08 01:54:31;;;;;;;20.52;14.38;;;;;;;23.71;50.37;98426.00;4503833;31;20102;-84
2022/09/08 01:56:57;;;;;;;19.87;13.95;;;;;;;23.71;50.21;98426.84;4489323;31;20088;-84
2022/09/08 01:59:23;;;;;;;21.75;15.65;;;;;;;23.64;50.21;98425.03;4503955;31;20359;-84
2022/09/08 02:01:49;;;;;;;21.60;15.00;;;;;;;23.36;50.80;98422.81;4489525;31;20100;-84
2022/09/08 02:04:14;;;;;;;20.67;14.95;;;;;;;23.38;50.75;98426.19;4504063;31;20150;-86
2022/09/08 02:06:40;;;;;;;21.30;15.32;;;;;;;23.47;50.68;98429.66;4503840;31;20467;-85
2022/09/08 02:09:05;;;;;;;22.48;15.10;;;;;;;23.46;50.57;98420.75;4504005;31;20095;-85
2022/09/08 02:11:31;;;;;;;19.58;14.55;;;;;;;23.49;50.50;98425.78;4503972;31;20096;-85
2022/09/08 02:13:57;;;;;;;22.73;15.48;;;;;;;23.52;50.39;98417.34;4476518;31;20144;-85
2022/09/08 02:16:23;;;;;;;21.02;15.02;;;;;;;23.47;50.54;98422.44;4503617;31;20095;-85
2022/09/08 02:18:48;;;;;;;23.12;15.70;;;;;;;23.46;50.56;98419.94;4503608;31;20463;-85
2022/09/08 02:21:18;;;;;;;20.27;15.32;;;;;;;23.44;50.58;98424.63;4489288;31;20129;-86
2022/09/08 02:23:46;;;;;;;19.58;14.68;;;;;;;23.46;50.48;98420.75;4503695;31;20114;-86
2022/09/08 02:26:19;;;;;;;21.58;15.55;;;;;;;23.43;50.53;98420.25;4489351;31;20110;-86
2022/09/08 02:28:45;;;;;;;21.70;15.52;;;;;;;23.44;50.41;98424.63;4503650;31;20096;-85
2022/09/08 02:31:11;;;;;;;20.12;14.25;;;;;;;23.40;50.49;98423.31;4503515;31;20352;-85
2022/09/08 02:33:36;;;;;;;20.52;14.65;;;;;;;23.42;50.40;98418.59;4489287;31;20379;-85
2022/09/08 02:36:03;;;;;;;21.60;14.05;;;;;;;23.40;50.54;98423.31;4503564;31;20084;-85
2022/09/08 02:38:28;;;;;;;21.55;15.40;;;;;;;23.41;50.52;98424.97;4503391;31;20206;-85
2022/09/08 02:40:54;;;;;;;22.27;15.35;;;;;;;23.44;50.41;98427.31;4503461;31;20096;-85
2022/09/08 02:43:21;;;;;;;23.00;16.02;;;;;;;23.35;50.50;98419.31;4476164;31;20123;-84
2022/09/08 02:45:47;;;;;;;;;;;;;;;23.36;50.47;98425.50;4503957;31;20076;-84
2022/09/08 02:48:13;;;;;;;22.40;14.65;;;;;;;23.45;50.23;98416.41;4503832;31;20064;-84
2022/09/08 02:50:39;;;;;;;19.30;14.00;;;;;;;23.33;50.47;98417.78;4503102;31;20119;-84
2022/09/08 02:53:04;;;;;;;23.30;15.35;;;;;;;23.28;50.58;98414.81;4489234;31;20085;-84
2022/09/08 02:55:30;;;;;;;21.52;14.63;;;;;;;23.27;50.59;98418.50;4503375;31;20096;-84
2022/09/08 02:57:56;;;;;;;21.95;14.55;;;;;;;23.25;50.60;98415.97;4488772;31;20093;-82
2022/09/08 03:00:21;;;;;;;20.27;14.85;;;;;;;23.26;50.56;98416.81;4503595;31;20088;-84
2022/09/08 03:02:47;;;;;;;19.92;13.35;;;;;;;23.26;50.47;98409.59;4489030;31;20091;-87
2022/09/08 03:05:13;;;;;;;18.37;13.30;;;;;;;23.22;50.43;98407.41;4503354;31;20125;-87
2022/09/08 03:07:39;;;;;;;19.58;12.88;;;;;;;23.20;50.37;98410.28;4503271;31;20411;-87
2022/09/08 03:10:06;;;;;;;19.58;12.32;;;;;;;23.24;49.94;98414.31;4503274;31;20111;-87
2022/09/08 03:12:32;;;;;;;18.60;12.10;;;;;;;23.25;49.65;98409.75;4489039;31;20084;-87
2022/09/08 03:14:58;;;;;;;20.20;12.18;;;;;;;23.16;49.63;98407.13;4503301;31;20106;-87
2022/09/08 03:17:23;;;;;;;17.45;12.15;;;;;;;23.15;49.51;98410.81;4488722;31;20360;-84
2022/09/08 03:19:50;;;;;;;17.92;11.73;;;;;;;23.12;49.57;98408.47;4503057;31;20452;-84
2022/09/08 03:22:17;;;;;;;17.37;11.00;;;;;;;23.16;49.45;98403.59;4503156;31;20088;-84
2022/09/08 03:24:43;;;;;;;16.48;10.77;;;;;;;23.11;49.46;98398.72;4503339;31;20115;-84
2022/09/08 03:27:09;;;;;;;15.50;10.25;;;;;;;23.11;49.37;98397.91;4488766;31;20375;-84
2022/09/08 03:29:34;;;;;;;15.70;10.20;;;;;;;23.09;49.23;98391.84;4503154;31;20093;-84
2022/09/08 03:32:00;;;;;;;17.95;10.77;;;;;;;23.04;49.36;98392.34;4503206;31;20105;-83
2022/09/08 03:34:26;;;;;;;16.10;10.80;;;;;;;23.07;49.19;98396.56;4488881;31;20106;-83
2022/09/08 03:36:52;;;;;;;17.10;10.98;;;;;;;23.05;49.22;98398.59;4503089;31;20139;-83
2022/09/08 03:39:17;;;;;;;16.92;10.80;;;;;;;23.06;49.14;98398.41;4488616;31;20101;-83
2022/09/08 03:41:43;;;;;;;16.00;10.75;;;;;;;23.08;49.17;98396.41;4488743;31;20360;-83
2022/09/08 03:44:09;;;;;;;17.48;11.60;;;;;;;23.10;49.21;98397.06;4503054;31;20125;-85
2022/09/08 03:46:34;;;;;;;16.70;10.85;;;;;;;23.08;49.24;98404.47;4488749;31;20103;-83
2022/09/08 03:49:00;;;;;;;17.33;11.27;;;;;;;22.95;49.55;98410.34;4502975;31;20084;-85
2022/09/08 03:51:26;;;;;;;17.15;10.32;;;;;;;22.92;49.62;98417.91;4502973;31;20137;-85
2022/09/08 03:53:53;;;;;;;17.20;11.00;;;;;;;22.95;49.54;98426.44;4502886;31;20418;-84
2022/09/08 03:56:19;;;;;;;16.95;11.68;;;;;;;22.97;49.56;98418.22;4475611;31;20122;-84
2022/09/08 03:58:44;;;;;;;18.02;10.98;;;;;;;22.97;49.54;98418.22;4502767;31;20092;-85
2022/09/08 04:01:13;;;;;;;17.42;11.43;;;;;;;22.95;49.70;98425.63;4488563;31;20092;-85
2022/09/08 04:03:39;;;;;;;17.87;11.15;;;;;;;22.93;49.93;98425.78;4501648;31;20435;-86
2022/09/08 04:06:04;;;;;;;18.85;12.35;;;;;;;22.90;50.11;98423.44;4488577;31;20149;-85
2022/09/08 04:08:30;;;;;;;19.75;13.43;;;;;;;22.85;50.28;98423.13;4502937;31;20135;-84
2022/09/08 04:10:56;;;;;;;18.98;13.40;;;;;;;22.88;50.33;98430.00;4502895;31;20103;-84
2022/09/08 04:13:22;;;;;;;18.80;14.05;;;;;;;22.91;50.42;98433.19;4488494;31;20076;-84
2022/09/08 04:15:47;;;;;;;21.98;14.23;;;;;;;22.90;50.45;98436.03;4488540;31;20119;-84
2022/09/08 04:18:13;;;;;;;21.52;14.15;;;;;;;22.92;50.50;98437.53;4488482;31;20088;-85
2022/09/08 04:20:39;;;;;;;19.05;13.50;;;;;;;22.88;50.68;98452.31;4502748;31;20084;-85
2022/09/08 04:23:05;;;;;;;21.45;14.63;;;;;;;22.93;50.63;98444.59;4502840;31;20144;-85
2022/09/08 04:25:31;;;;;;;21.75;14.32;;;;;;;22.97;50.61;98439.72;4502706;31;20095;-83
2022/09/08 04:27:56;;;;;;;21.35;13.50;;;;;;;22.97;50.66;98440.56;4502966;31;20142;-83
2022/09/08 04:30:22;;;;;;;19.17;13.52;;;;;;;22.98;50.66;98433.31;4502794;31;20102;-83
2022/09/08 04:32:47;;;;;;;20.12;13.85;;;;;;;23.03;50.64;98422.09;4488375;31;20076;-83
2022/09/08 04:35:13;;;;;;;19.40;13.73;;;;;;;23.05;50.80;98417.41;4502692;31;20152;-83
2022/09/08 04:37:38;;;;;;;22.25;15.32;;;;;;;23.11;50.67;98408.66;4502567;31;20143;-83
2022/09/08 04:40:06;;;;;;;19.40;14.85;;;;;;;23.19;50.56;98413.16;4502610;31;20106;-83
2022/09/08 04:42:33;;;;;;;21.08;16.00;;;;;;;23.25;50.45;98413.28;4488453;31;20079;-83
2022/09/08 04:44:59;;;;;;;21.90;15.45;;;;;;;23.29;50.47;98413.78;4488314;31;20091;-84
2022/09/08 04:47:24;;;;;;;21.45;15.63;;;;;;;23.36;50.27;98420.12;4502626;31;20140;-85
2022/09/08 04:49:50;;;;;;;21.60;14.93;;;;;;;23.45;50.17;98415.53;4502537;31;20144;-85
2022/09/08 04:52:16;;;;;;;21.65;14.55;;;;;;;23.52;50.39;98422.75;4502418;31;20111;-85
2022/09/08 04:54:42;;;;;;;21.50;14.75;;;;;;;23.56;50.24;98420.53;4502505;31;20089;-84
2022/09/08 04:57:08;;;;;;;21.35;15.25;;;;;;;23.71;49.87;98426.84;4488342;31;20260;-85
2022/09/08 04:59:34;;;;;;;22.83;15.65;;;;;;;23.78;49.84;98426.13;4488197;31;20079;-85
2022/09/08 05:01:59;;;;;;;20.98;15.90;;;;;;;23.60;49.84;98426.41;4502346;31;20084;-85
2022/09/08 05:04:25;;;;;;;21.52;15.25;;;;;;;23.79;49.45;98428.69;4487954;31;20101;-84
2022/09/08 05:06:51;;;;;;;20.67;15.23;;;;;;;23.73;49.67;98432.88;4502349;31;20494;-84
2022/09/08 05:09:16;;;;;;;20.15;14.57;;;;;;;24.06;48.94;98426.50;4487943;31;20148;-84
2022/09/08 05:11:42;;;;;;;21.10;15.25;;;;;;;24.10;49.14;98428.66;4487829;31;20132;-86
2022/09/08 05:14:07;;;;;;;19.27;14.30;;;;;;;24.17;49.18;98426.09;4501633;31;20112;-84
2022/09/08 05:16:33;;;;;;;19.87;14.15;;;;;;;24.26;48.69;98430.41;4502142;31;20084;-84
2022/09/08 05:19:01;;;;;;;20.92;13.88;;;;;;;24.40;47.93;98434.16;4502098;31;20113;-84
2022/09/08 05:21:27;;;;;;;;;;;;;;;24.42;47.88;98434.81;4502403;31;20596;-84
2022/09/08 05:23:54;;;;;;;19.02;13.88;;;;;;;24.60;47.62;98437.19;4487894;31;20027;-84
2022/09/08 05:26:21;;;;;;;19.20;13.98;;;;;;;24.61;47.36;98435.34;4487691;31;20129;-85
2022/09/08 05:28:46;;;;;;;21.63;14.37;;;;;;;24.63;47.18;98438.72;4487569;31;20088;-84
2022/09/08 05:31:15;;;;;;;20.27;13.40;;;;;;;24.63;46.98;98436.03;4496870;31;20506;-86
2022/09/08 05:33:40;;;;;;;19.02;13.32;;;;;;;24.67;46.85;98434.62;4479987;31;20120;-84
2022/09/08 05:36:11;;;;;;;19.65;14.23;;;;;;;24.68;46.90;98431.72;4492737;31;20443;-85
2022/09/08 05:38:36;;;;;;;22.52;14.90;;;;;;;24.76;46.77;98425.44;4478984;31;20542;-86
2022/09/08 05:41:02;;;;;;;19.30;14.02;;;;;;;24.80;46.57;98437.53;4494070;31;20089;-85
2022/09/08 05:43:27;;;;;;;19.58;13.85;;;;;;;24.87;46.53;98438.44;4492508;31;20364;-84
2022/09/08 05:45:53;;;;;;;18.83;13.62;;;;;;;24.95;45.88;98436.72;4493589;31;20118;-84
2022/09/08 05:48:18;;;;;;;18.50;14.15;;;;;;;25.06;45.99;98433.56;4493557;31;20100;-84
2022/09/08 05:50:45;;;;;;;20.08;14.13;;;;;;;25.06;45.97;98430.87;4478993;31;20080;-83
2022/09/08 05:53:10;;;;;;;19.93;14.17;;;;;;;25.21;46.16;98429.00;4493025;31;20366;-82
2022/09/08 05:55:36;;;;;;;21.02;15.25;;;;;;;25.25;46.28;98435.72;4480317;31;20162;-82
2022/09/08 05:58:02;;;;;;;20.60;15.13;;;;;;;25.31;45.96;98426.06;4479433;31;20152;-82
2022/09/08 06:00:31;;;;;;;20.92;14.50;;;;;;;25.19;46.42;98431.06;4493031;31;20152;-83
2022/09/08 06:02:56;;;;;;;21.17;14.07;;;;;;;25.33;46.01;98424.00;4485340;31;20088;-81
2022/09/08 06:05:22;;;;;;;20.60;14.10;;;;;;;25.44;45.69;98428.06;4501534;31;20137;-83
2022/09/08 06:07:49;;;;;;;20.48;15.38;;;;;;;25.63;45.30;98426.66;4501631;31;20079;-83
2022/09/08 06:10:15;;;;;;;19.00;13.75;;;;;;;25.60;44.95;98430.56;4487137;31;20174;-84
2022/09/08 06:12:40;;;;;;;18.70;14.45;;;;;;;25.79;44.71;98425.63;4487103;31;20127;-84
2022/09/08 06:15:06;;;;;;;20.95;14.52;;;;;;;25.82;44.56;98423.34;4501397;31;20085;-83
2022/09/08 06:17:32;;;;;;;19.25;14.43;;;;;;;25.88;44.80;98413.66;4501152;31;20355;-82
2022/09/08 06:19:57;;;;;;;18.35;13.38;;;;;;;26.01;44.19;98411.12;4501245;31;20080;-82
2022/09/08 06:22:23;;;;;;;20.75;15.75;;;;;;;25.91;44.54;98418.72;4501251;31;20111;-82
2022/09/08 06:24:48;;;;;;;22.52;15.98;;;;;;;25.97;44.17;98419.81;4501275;31;20097;-84
2022/09/08 06:27:17;;;;;;;22.92;15.77;;;;;;;26.10;44.21;98406.44;4503265;31;20088;-82
2022/09/08 06:30:23;;;;;;;23.35;16.75;;;;;;;26.26;43.71;98406.19;4489276;31;20191;-82
2022/09/08 06:32:52;;;;;;;20.95;15.40;;;;;;;26.21;43.86;98413.19;4438977;32;20102;-82
2022/09/08 06:35:27;;;;;;;23.67;15.70;;;;;;;26.27;43.91;98410.56;4438938;32;20143;-81
2022/09/08 06:37:56;;;;;;;23.25;15.85;;;;;;;26.38;43.58;98408.34;4413096;32;20301;-84
2022/09/08 06:40:39;;;;;;;22.15;15.25;;;;;;;26.43;43.71;98408.63;4438718;32;20484;-84
2022/09/08 06:43:35;;;;;;;21.48;14.90;;;;;;;26.51;43.30;98399.53;4425855;32;20189;-82
2022/09/08 06:46:06;;;;;;;20.35;16.10;;;;;;;26.63;42.94;98389.88;4425864;32;20106;-81
2022/09/08 06:48:37;;;;;;;23.08;16.02;;;;;;;26.60;43.06;98391.13;4439013;32;20080;-82
2022/09/08 06:51:31;;;;;;;21.48;15.48;;;;;;;26.39;43.80;98393.84;4425972;32;20077;-81
2022/09/08 06:54:03;;;;;;;24.30;16.75;;;;;;;26.45;43.76;98396.59;4438669;32;20174;-81
2022/09/08 06:56:29;;;;;;;23.38;16.42;;;;;;;25.73;44.84;98399.38;4438585;32;20296;-81
2022/09/08 06:59:00;;;;;;;22.25;14.87;;;;;;;25.65;45.50;98395.78;4438382;32;20109;-82
2022/09/08 07:01:35;;;;;;;21.30;15.38;;;;;;;26.11;44.67;98382.97;4438602;32;20096;-82
2022/09/08 07:04:12;;;;;;;26.50;16.62;;;;;;;26.22;44.11;98375.19;4425820;32;20093;-81
2022/09/08 07:06:53;;;;;;;22.35;16.27;;;;;;;25.94;44.26;98380.56;4465924;31;20122;-81
2022/09/08 07:09:43;;;;;;;21.83;15.35;;;;;;;25.86;44.43;98375.22;4503368;31;20397;-82
2022/09/08 07:12:36;;;;;;;20.70;15.20;;;;;;;26.31;44.11;98372.34;4489059;31;20084;-81
2022/09/08 07:15:16;;;;;;;21.83;15.45;;;;;;;26.48;43.92;98377.28;4503685;31;20443;-82
2022/09/08 07:17:56;;;;;;;24.73;16.90;;;;;;;26.54;43.46;98380.22;4502617;31;20080;-84
2022/09/08 07:20:25;;;;;;;23.70;16.23;;;;;;;25.99;44.27;98380.78;4502597;31;20367;-89
2022/09/08 07:22:59;;;;;;;21.77;14.20;;;;;;;26.04;44.47;98372.97;4487904;31;20088;-87
2022/09/08 07:25:26;;;;;;;21.85;15.38;;;;;;;26.21;44.30;98376.25;4488217;31;20100;-88
2022/09/08 07:28:12;;;;;;;24.87;15.82;;;;;;;26.46;43.62;98381.19;4488642;31;20761;-87
2022/09/08 07:30:38;;;;;;;26.90;14.87;;;;;;;26.57;43.09;98371.75;4503258;31;20096;-88
2022/09/08 07:33:22;;;;;;;18.95;13.75;;;;;;;26.37;43.25;98385.09;4488751;31;20076;-88
2022/09/08 07:36:10;;;;;;;20.50;13.90;;;;;;;25.93;44.87;98384.28;4488899;31;20133;-87
2022/09/08 07:38:48;;;;;;;17.87;12.63;;;;;;;26.41;43.70;98383.69;4503298;31;20088;-87
2022/09/08 07:41:20;;;;;;;18.92;13.07;;;;;;;26.63;43.15;98387.19;4503237;31;20558;-88
2022/09/08 07:43:48;;;;;;;22.27;12.85;;;;;;;26.74;42.58;98388.53;4489152;31;20127;-88
2022/09/08 07:46:23;;;;;;;20.90;13.15;;;;;;;26.83;42.53;98388.16;4503270;31;20095;-87
2022/09/08 07:49:10;;;;;;;19.30;12.60;;;;;;;26.99;41.82;98387.00;4503132;31;20530;-88
2022/09/08 07:51:55;;;;;;;19.75;12.63;;;;;;;27.05;41.88;98397.03;4488833;31;20458;-89
2022/09/08 07:54:23;;;;;;;19.62;12.45;;;;;;;26.93;42.17;98397.78;4488780;31;20127;-88
2022/09/08 07:56:57;;;;;;;19.35;11.90;;;;;;;27.14;41.94;98392.31;4503006;31;20091;-87
2022/09/08 07:59:38;;;;;;;18.12;12.23;;;;;;;27.12;42.61;98394.38;4488481;31;20436;-88
2022/09/08 08:02:18;;;;;;;22.20;14.35;;;;;;;27.29;41.96;98392.19;4503028;31;20162;-87
2022/09/08 08:05:06;;;;;;;19.33;12.25;;;;;;;27.16;42.08;98402.91;4503042;31;20140;-89
2022/09/08 08:07:43;;;;;;;20.58;14.23;;;;;;;27.28;42.20;98401.34;4488609;31;20096;-87
2022/09/08 08:10:18;;;;;;;20.20;13.32;;;;;;;26.71;42.94;98415.94;4488711;31;20129;-87
2022/09/08 08:12:52;;;;;;;19.50;13.32;;;;;;;26.93;42.86;98417.53;4502905;31;20110;-88
2022/09/08 08:15:27;;;;;;;19.25;13.13;;;;;;;27.12;42.31;98413.31;4488767;31;20581;-88
2022/09/08 08:17:57;;;;;;;18.85;13.40;;;;;;;27.30;41.96;98403.84;4488464;31;20087;-88
2022/09/08 08:20:28;;;;;;;19.95;12.68;;;;;;;27.35;41.75;98418.44;4503016;31;20100;-87
2022/09/08 08:22:59;;;;;;;21.27;12.95;;;;;;;27.46;41.55;98415.13;4502830;31;20091;-87
2022/09/08 08:25:28;;;;;;;18.85;11.93;;;;;;;27.48;42.04;98414.94;4502836;31;20114;-88
2022/09/08 08:28:22;;;;;;;22.55;13.65;;;;;;;27.61;41.91;98416.88;4502740;31;20123;-88
2022/09/08 08:30:57;;;;;;;19.92;12.43;;;;;;;27.62;41.53;98415.84;4485884;31;20096;-88
2022/09/08 08:33:28;;;;;;;20.95;13.27;;;;;;;27.64;41.60;98422.72;4502660;31;20463;-87
2022/09/08 08:36:00;;;;;;;24.50;13.90;;;;;;;27.51;42.00;98417.25;4488537;31;20084;-88
2022/09/08 08:38:30;;;;;;;23.38;13.75;;;;;;;27.50;41.77;98412.88;4488162;31;20180;-88
2022/09/08 08:40:57;;;;;;;20.35;12.65;;;;;;;27.37;42.27;98410.09;4488479;31;20122;-88
2022/09/08 08:43:41;;;;;;;21.00;12.77;;;;;;;27.57;41.92;98410.22;4502536;31;20110;-87
2022/09/08 08:46:37;;;;;;;19.80;12.70;;;;;;;27.61;41.84;98420.41;4502948;31;20163;-87
2022/09/08 08:49:17;;;;;;;16.77;11.95;;;;;;;27.70;41.77;98422.94;4487354;31;20250;-88
2022/09/08 08:52:01;;;;;;;19.73;12.00;;;;;;;27.73;42.09;98423.37;4488305;31;20565;-88
2022/09/08 08:54:51;;;;;;;18.50;12.20;;;;;;;27.80;42.11;98418.00;4502436;31;20109;-88
2022/09/08 08:57:35;;;;;;;21.02;11.73;;;;;;;27.80;42.01;98409.88;4502697;31;20368;-87
2022/09/08 09:00:24;;;;;;;20.23;12.40;;;;;;;27.94;41.90;98405.34;4502244;31;20089;-87
2022/09/08 09:03:11;;;;;;;19.05;11.12;;;;;;;27.92;41.53;98399.31;4488043;31;20143;-87
2022/09/08 09:05:52;;;;;;;18.15;12.35;;;;;;;27.98;42.05;98402.03;4488351;31;20155;-87
2022/09/08 09:08:20;;;;;;;20.48;11.63;;;;;;;27.98;41.36;98395.78;4502370;31;20100;-87
2022/09/08 09:11:05;;;;;;;19.37;12.50;;;;;;;27.92;41.60;98391.19;4502472;31;20458;-88
2022/09/08 09:13:52;;;;;;;18.65;12.35;;;;;;;27.96;41.61;98385.16;4502485;31;20092;-87
2022/09/08 09:16:32;;;;;;;19.30;12.02;;;;;;;27.97;41.45;98377.84;4502446;31;20084;-86
2022/09/08 09:19:28;;;;;;;17.87;11.63;;;;;;;27.97;41.79;98369.72;4487755;31;20106;-87
2022/09/08 09:22:21;;;;;;;16.67;10.88;;;;;;;27.97;41.81;98373.28;4502358;31;20096;-88
2022/09/08 09:25:24;;;;;;;16.70;10.68;;;;;;;27.87;42.55;98371.97;4488328;31;20142;-88
2022/09/08 09:27:55;;;;;;;18.27;11.52;;;;;;;27.91;42.08;98363.28;4502309;31;20110;-87
2022/09/08 09:30:22;;;;;;;19.40;11.55;;;;;;;27.89;42.35;98359.94;4487548;31;20092;-87
2022/09/08 09:33:11;;;;;;;18.02;11.40;;;;;;;27.89;42.35;98359.09;4502055;31;20510;-87
2022/09/08 09:36:11;;;;;;;21.20;11.88;;;;;;;27.86;42.22;98363.03;4502087;31;20096;-87
2022/09/08 09:38:59;;;;;;;18.87;11.10;;;;;;;28.04;42.18;98360.56;4487727;31;20080;-88
2022/09/08 09:41:43;;;;;;;18.50;11.60;;;;;;;27.89;42.34;98361.81;4501898;31;20103;-88
2022/09/08 09:44:20;;;;;;;17.45;10.73;;;;;;;27.88;42.74;98355.56;4501916;31;20122;-87
2022/09/08 09:46:51;;;;;;;19.80;9.93;;;;;;;28.08;42.20;98344.75;4501851;31;20092;-87
2022/09/08 09:49:54;;;;;;;18.67;10.23;;;;;;;28.20;41.87;98337.69;4501776;31;20147;-87
2022/09/08 09:53:10;;;;;;;15.15;9.32;;;;;;;28.27;41.91;98348.50;4501831;31;20072;-87
2022/09/08 09:55:53;;;;;;;15.93;8.88;;;;;;;28.42;41.43;98341.00;4436816;32;20182;-87
2022/09/08 09:58:29;;;;;;;17.77;9.13;;;;;;;28.54;40.93;98333.09;4436734;32;20393;-87
2022/09/08 10:01:04;;;;;;;15.57;9.10;;;;;;;28.59;41.05;98327.06;4425756;32;20151;-86
2022/09/08 10:04:00;;;;;;;13.52;8.52;;;;;;;28.57;41.49;98329.97;4439154;32;20136;-87
2022/09/08 10:06:33;;;;;;;14.65;8.98;;;;;;;28.71;40.84;98321.84;4439075;32;20405;-87
2022/09/08 10:09:31;;;;;;;16.12;8.85;;;;;;;28.64;40.77;98332.66;4439163;32;20098;-87
2022/09/08 10:12:21;;;;;;;14.60;9.23;;;;;;;28.73;40.57;98327.88;4438815;32;20077;-87
2022/09/08 10:14:59;;;;;;;16.30;9.40;;;;;;;28.76;40.62;98320.16;4439415;32;20104;-87
2022/09/08 10:17:52;;;;;;;15.02;8.32;;;;;;;28.67;41.16;98323.31;4438895;32;20284;-87
2022/09/08 10:20:42;;;;;;;15.50;8.88;;;;;;;28.81;40.36;98312.19;4439134;32;20127;-87
2022/09/08 10:23:13;;;;;;;15.82;8.73;;;;;;;28.91;40.45;98317.16;4438858;32;20097;-86
2022/09/08 10:25:55;;;;;;;16.48;8.75;;;;;;;28.81;40.25;98311.38;4439006;32;20133;-88
2022/09/08 10:28:38;;;;;;;12.75;7.97;;;;;;;28.91;40.47;98317.16;4438921;32;20131;-88
2022/09/08 10:31:40;;;;;;;13.90;7.72;;;;;;;28.99;40.20;98307.97;4453466;31;20100;-87
2022/09/08 10:34:30;;;;;;;13.07;7.90;;;;;;;29.01;40.57;98305.88;4504040;31;20139;-88
2022/09/08 10:37:14;;;;;;;13.30;7.78;;;;;;;29.03;40.78;98298.34;4503501;31;20084;-87
2022/09/08 10:39:52;;;;;;;14.98;8.07;;;;;;;29.19;40.46;98306.03;4503615;31;20091;-87
2022/09/08 10:42:36;;;;;;;15.85;8.98;;;;;;;28.98;41.02;98311.75;4489237;31;20159;-86
2022/09/08 10:45:14;;;;;;;12.93;8.40;;;;;;;28.96;41.37;98311.94;4503489;31;20084;-88
2022/09/08 10:48:03;;;;;;;14.55;8.05;;;;;;;28.94;41.33;98319.47;4503532;31;20121;-87
2022/09/08 10:50:29;;;;;;;13.70;8.18;;;;;;;29.16;40.87;98320.03;4489177;31;20127;-86
2022/09/08 10:53:33;;;;;;;13.73;7.22;;;;;;;29.24;40.81;98313.53;4489194;31;20092;-88
2022/09/08 10:56:08;;;;;;;13.55;7.45;;;;;;;29.29;40.74;98313.72;4489477;31;20476;-87
2022/09/08 10:59:11;;;;;;;15.15;6.20;;;;;;;29.23;41.21;98311.06;4488844;31;20084;-87
2022/09/08 11:02:00;;;;;;;16.58;7.37;;;;;;;29.19;41.02;98302.50;4503477;31;20148;-87
2022/09/08 11:05:07;;;;;;;13.55;6.87;;;;;;;29.28;40.85;98297.66;4503580;31;20106;-87
2022/09/08 11:07:56;;;;;;;15.45;6.93;;;;;;;29.28;41.05;98313.94;4503157;31;20079;-87
2022/09/08 11:10:37;;;;;;;11.77;6.25;;;;;;;29.41;40.48;98292.16;4489248;31;20148;-86
2022/09/08 11:13:29;;;;;;;12.90;6.40;;;;;;;29.56;40.23;98300.00;4502796;31;20088;-87
2022/09/08 11:16:06;;;;;;;11.27;5.10;;;;;;;29.33;41.12;98301.37;4489030;31;20122;-87
2022/09/08 11:18:36;;;;;;;9.73;4.90;;;;;;;29.43;39.88;98294.66;4503338;31;20080;-87
2022/09/08 11:21:29;;;;;;;14.07;5.43;;;;;;;29.54;39.59;98299.41;4503232;31;20075;-87
2022/09/08 11:24:01;;;;;;;11.52;4.57;;;;;;;29.60;39.59;98301.25;4478726;31;20518;-87
2022/09/08 11:26:45;;;;;;;10.95;4.70;;;;;;;29.71;39.27;98294.25;4503272;31;20119;-86
2022/09/08 11:29:15;;;;;;;11.82;4.10;;;;;;;29.84;38.75;98287.94;4503523;31;20076;-87
2022/09/08 11:32:02;;;;;;;12.75;4.40;;;;;;;29.68;39.31;98298.25;4503378;31;20151;-87
2022/09/08 11:34:50;;;;;;;10.18;4.18;;;;;;;29.92;38.43;98296.66;4488707;31;20104;-87
2022/09/08 11:37:37;;;;;;;11.85;4.35;;;;;;;30.01;38.24;98296.38;4489013;31;20104;-87
2022/09/08 11:40:17;;;;;;;12.55;4.30;;;;;;;30.07;38.41;98301.75;4503152;31;20128;-87
2022/09/08 11:42:49;;;;;;;11.32;4.30;;;;;;;30.28;37.55;98295.09;4503148;31;20335;-87
2022/09/08 11:45:51;;;;;;;12.25;4.45;;;;;;;30.48;37.34;98310.41;4503163;31;20427;-87
2022/09/08 11:48:17;;;;;;;13.32;3.47;;;;;;;30.60;36.89;98308.63;4488737;31;20167;-87
2022/09/08 11:50:50;;;;;;;10.68;3.47;;;;;;;30.76;36.45;98294.44;4502993;31;20107;-87